sensor_id;sensor_type;location;lat;lon;timestamp;temperature;humidity
18131;DHT22;9191;54.324;10.126;2022-07-10T00:00:29;13.90;99.90
18131;DHT22;9191;54.324;10.126;2022-07-10T00:02:57;13.90;99.90
18131;DHT22;9191;54.324;10.126;2022-07-10T00:05:24;13.80;99.90
18131;DHT22;9191;54.324;10.126;2022-07-10T00:07:51;13.70;99.90
18131;DHT22;9191;54.324;10.126;2022-07-10T00:10:18;13.70;99.90
18131;DHT22;9191;54.324;10.126;2022-07-10T00:12:45;13.60;99.90
18131;DHT22;9191;54.324;10.126;2022-07-10T00:15:12;13.70;99.90
18131;DHT22;9191;54.324;10.126;2022-07-10T00:17:38;13.60;99.90
18131;DHT22;9191;54.324;10.126;2022-07-10T00:20:08;13.50;99.90
18131;DHT22;9191;54.324;10.126;2022-07-10T00:22:35;13.50;99.90
18131;DHT22;9191;54.324;10.126;2022-07-10T00:25:03;13.50;99.90
18131;DHT22;9191;54.324;10.126;2022-07-10T00:27:30;13.50;99.90
18131;DHT22;9191;54.324;10.126;2022-07-10T00:29:57;13.40;99.90
18131;DHT22;9191;54.324;10.126;2022-07-10T00:32:24;13.40;99.90
18131;DHT22;9191;54.324;10.126;2022-07-10T00:34:50;13.40;99.90
18131;DHT22;9191;54.324;10.126;2022-07-10T00:37:18;13.50;99.90
18131;DHT22;9191;54.324;10.126;2022-07-10T00:39:46;13.40;99.90
18131;DHT22;9191;54.324;10.126;2022-07-10T00:42:13;13.50;99.90
18131;DHT22;9191;54.324;10.126;2022-07-10T00:44:40;13.60;99.90
18131;DHT22;9191;54.324;10.126;2022-07-10T00:47:08;13.60;99.90
18131;DHT22;9191;54.324;10.126;2022-07-10T00:49:35;13.60;99.90
18131;DHT22;9191;54.324;10.126;2022-07-10T00:52:03;13.50;99.90
18131;DHT22;9191;54.324;10.126;2022-07-10T00:54:31;13.60;99.90
18131;DHT22;9191;54.324;10.126;2022-07-10T00:56:58;13.60;99.90
18131;DHT22;9191;54.324;10.126;2022-07-10T00:59:25;13.60;99.90
18131;DHT22;9191;54.324;10.126;2022-07-10T01:01:52;13.50;99.90
18131;DHT22;9191;54.324;10.126;2022-07-10T01:04:18;13.50;99.90
18131;DHT22;9191;54.324;10.126;2022-07-10T01:06:45;13.60;99.90
18131;DHT22;9191;54.324;10.126;2022-07-10T01:09:12;13.60;99.90
18131;DHT22;9191;54.324;10.126;2022-07-10T01:11:40;13.70;99.90
18131;DHT22;9191;54.324;10.126;2022-07-10T01:14:06;13.70;99.90
18131;DHT22;9191;54.324;10.126;2022-07-10T01:16:33;13.80;99.90
18131;DHT22;9191;54.324;10.126;2022-07-10T01:19:00;13.80;99.90
18131;DHT22;9191;54.324;10.126;2022-07-10T01:21:29;13.70;99.90
18131;DHT22;9191;54.324;10.126;2022-07-10T01:23:56;13.70;99.90
18131;DHT22;9191;54.324;10.126;2022-07-10T01:26:23;13.70;99.90
18131;DHT22;9191;54.324;10.126;2022-07-10T01:28:51;13.80;99.90
18131;DHT22;9191;54.324;10.126;2022-07-10T01:31:18;13.80;99.90
18131;DHT22;9191;54.324;10.126;2022-07-10T01:33:44;13.80;99.90
18131;DHT22;9191;54.324;10.126;2022-07-10T01:36:11;13.80;99.90
18131;DHT22;9191;54.324;10.126;2022-07-10T01:38:40;13.80;99.90
18131;DHT22;9191;54.324;10.126;2022-07-10T01:41:07;13.80;99.90
18131;DHT22;9191;54.324;10.126;2022-07-10T01:43:34;13.80;99.90
18131;DHT22;9191;54.324;10.126;2022-07-10T01:46:01;13.80;99.90
18131;DHT22;9191;54.324;10.126;2022-07-10T01:48:29;13.90;99.90
18131;DHT22;9191;54.324;10.126;2022-07-10T01:50:56;13.90;99.90
18131;DHT22;9191;54.324;10.126;2022-07-10T01:53:22;13.90;99.90
18131;DHT22;9191;54.324;10.126;2022-07-10T01:55:50;13.90;99.90
18131;DHT22;9191;54.324;10.126;2022-07-10T01:58:17;13.80;99.90
18131;DHT22;9191;54.324;10.126;2022-07-10T02:00:44;13.90;99.90
18131;DHT22;9191;54.324;10.126;2022-07-10T02:03:11;13.90;99.90
18131;DHT22;9191;54.324;10.126;2022-07-10T02:05:55;13.90;99.90
18131;DHT22;9191;54.324;10.126;2022-07-10T02:08:21;13.80;99.90
18131;DHT22;9191;54.324;10.126;2022-07-10T02:10:48;13.80;99.90
18131;DHT22;9191;54.324;10.126;2022-07-10T02:13:16;13.80;99.90
18131;DHT22;9191;54.324;10.126;2022-07-10T02:15:45;13.90;99.90
18131;DHT22;9191;54.324;10.126;2022-07-10T02:18:12;13.90;99.90
18131;DHT22;9191;54.324;10.126;2022-07-10T02:20:39;13.90;99.90
18131;DHT22;9191;54.324;10.126;2022-07-10T02:23:05;13.80;99.90
18131;DHT22;9191;54.324;10.126;2022-07-10T02:25:32;13.80;99.90
18131;DHT22;9191;54.324;10.126;2022-07-10T02:27:59;13.80;99.90
18131;DHT22;9191;54.324;10.126;2022-07-10T02:30:27;13.70;99.90
18131;DHT22;9191;54.324;10.126;2022-07-10T02:32:53;13.80;99.90
18131;DHT22;9191;54.324;10.126;2022-07-10T02:35:20;13.80;99.90
18131;DHT22;9191;54.324;10.126;2022-07-10T02:37:47;13.70;99.90
18131;DHT22;9191;54.324;10.126;2022-07-10T02:40:14;13.70;99.90
18131;DHT22;9191;54.324;10.126;2022-07-10T02:42:40;13.70;99.90
18131;DHT22;9191;54.324;10.126;2022-07-10T02:45:07;13.70;99.90
18131;DHT22;9191;54.324;10.126;2022-07-10T02:47:35;13.60;99.90
18131;DHT22;9191;54.324;10.126;2022-07-10T02:50:02;13.70;99.90
18131;DHT22;9191;54.324;10.126;2022-07-10T02:52:29;13.70;99.90
18131;DHT22;9191;54.324;10.126;2022-07-10T02:54:56;13.70;99.90
18131;DHT22;9191;54.324;10.126;2022-07-10T02:57:22;13.80;99.90
18131;DHT22;9191;54.324;10.126;2022-07-10T02:59:49;13.80;99.90
18131;DHT22;9191;54.324;10.126;2022-07-10T03:02:16;13.70;99.90
18131;DHT22;9191;54.324;10.126;2022-07-10T03:04:44;13.70;99.90
18131;DHT22;9191;54.324;10.126;2022-07-10T03:07:10;13.60;99.90
18131;DHT22;9191;54.324;10.126;2022-07-10T03:09:37;13.70;99.90
18131;DHT22;9191;54.324;10.126;2022-07-10T03:12:05;13.70;99.90
18131;DHT22;9191;54.324;10.126;2022-07-10T03:14:31;13.70;99.90
18131;DHT22;9191;54.324;10.126;2022-07-10T03:16:58;13.70;99.90
18131;DHT22;9191;54.324;10.126;2022-07-10T03:19:25;13.60;99.90
18131;DHT22;9191;54.324;10.126;2022-07-10T03:21:53;13.60;99.90
18131;DHT22;9191;54.324;10.126;2022-07-10T03:24:19;13.70;99.90
18131;DHT22;9191;54.324;10.126;2022-07-10T03:26:46;13.70;99.90
18131;DHT22;9191;54.324;10.126;2022-07-10T03:29:13;13.70;99.90
18131;DHT22;9191;54.324;10.126;2022-07-10T03:31:39;13.70;99.90
18131;DHT22;9191;54.324;10.126;2022-07-10T03:34:06;13.70;99.90
18131;DHT22;9191;54.324;10.126;2022-07-10T03:36:32;13.70;99.90
18131;DHT22;9191;54.324;10.126;2022-07-10T03:39:00;13.70;99.90
18131;DHT22;9191;54.324;10.126;2022-07-10T03:41:27;13.70;99.90
18131;DHT22;9191;54.324;10.126;2022-07-10T03:43:53;13.70;99.90
18131;DHT22;9191;54.324;10.126;2022-07-10T03:46:20;13.70;99.90
18131;DHT22;9191;54.324;10.126;2022-07-10T03:48:47;13.70;99.90
18131;DHT22;9191;54.324;10.126;2022-07-10T03:51:13;13.70;99.90
18131;DHT22;9191;54.324;10.126;2022-07-10T03:53:40;13.70;99.90
18131;DHT22;9191;54.324;10.126;2022-07-10T03:56:08;13.70;99.90
18131;DHT22;9191;54.324;10.126;2022-07-10T03:58:55;13.70;99.90
18131;DHT22;9191;54.324;10.126;2022-07-10T04:01:20;13.70;99.90
18131;DHT22;9191;54.324;10.126;2022-07-10T04:03:47;13.60;99.90
18131;DHT22;9191;54.324;10.126;2022-07-10T04:06:13;13.50;99.90
18131;DHT22;9191;54.324;10.126;2022-07-10T04:08:40;13.40;99.90
18131;DHT22;9191;54.324;10.126;2022-07-10T04:11:08;13.50;99.90
18131;DHT22;9191;54.324;10.126;2022-07-10T04:13:35;13.40;99.90
18131;DHT22;9191;54.324;10.126;2022-07-10T04:16:02;13.30;99.90
18131;DHT22;9191;54.324;10.126;2022-07-10T04:18:29;13.30;99.90
18131;DHT22;9191;54.324;10.126;2022-07-10T04:20:55;13.30;99.90
18131;DHT22;9191;54.324;10.126;2022-07-10T04:23:22;13.30;99.90
18131;DHT22;9191;54.324;10.126;2022-07-10T04:25:49;13.40;99.90
18131;DHT22;9191;54.324;10.126;2022-07-10T04:28:17;13.30;99.90
18131;DHT22;9191;54.324;10.126;2022-07-10T04:30:43;13.30;99.90
18131;DHT22;9191;54.324;10.126;2022-07-10T04:33:10;13.30;99.90
18131;DHT22;9191;54.324;10.126;2022-07-10T04:35:37;13.30;99.90
18131;DHT22;9191;54.324;10.126;2022-07-10T04:38:04;13.40;99.90
18131;DHT22;9191;54.324;10.126;2022-07-10T04:40:31;13.30;99.90
18131;DHT22;9191;54.324;10.126;2022-07-10T04:42:57;13.30;99.90
18131;DHT22;9191;54.324;10.126;2022-07-10T04:45:26;13.40;99.90
18131;DHT22;9191;54.324;10.126;2022-07-10T04:47:52;13.40;99.90
18131;DHT22;9191;54.324;10.126;2022-07-10T04:50:19;13.30;99.90
18131;DHT22;9191;54.324;10.126;2022-07-10T04:52:45;13.40;99.90
18131;DHT22;9191;54.324;10.126;2022-07-10T04:55:12;13.40;99.90
18131;DHT22;9191;54.324;10.126;2022-07-10T04:57:39;13.40;99.90
18131;DHT22;9191;54.324;10.126;2022-07-10T05:00:10;13.40;99.90
18131;DHT22;9191;54.324;10.126;2022-07-10T05:02:38;13.50;99.90
18131;DHT22;9191;54.324;10.126;2022-07-10T05:05:05;13.60;99.90
18131;DHT22;9191;54.324;10.126;2022-07-10T05:07:31;13.70;99.90
18131;DHT22;9191;54.324;10.126;2022-07-10T05:09:58;13.80;99.90
18131;DHT22;9191;54.324;10.126;2022-07-10T05:12:25;13.80;99.90
18131;DHT22;9191;54.324;10.126;2022-07-10T05:14:52;13.80;99.90
18131;DHT22;9191;54.324;10.126;2022-07-10T05:17:18;13.90;99.90
18131;DHT22;9191;54.324;10.126;2022-07-10T05:19:46;14.00;99.90
18131;DHT22;9191;54.324;10.126;2022-07-10T05:22:13;14.10;99.90
18131;DHT22;9191;54.324;10.126;2022-07-10T05:24:39;14.00;99.90
18131;DHT22;9191;54.324;10.126;2022-07-10T05:27:06;14.00;99.90
18131;DHT22;9191;54.324;10.126;2022-07-10T05:29:33;14.20;99.90
18131;DHT22;9191;54.324;10.126;2022-07-10T05:31:59;14.30;99.90
18131;DHT22;9191;54.324;10.126;2022-07-10T05:34:26;14.40;99.90
18131;DHT22;9191;54.324;10.126;2022-07-10T05:36:54;14.50;99.90
18131;DHT22;9191;54.324;10.126;2022-07-10T05:39:21;14.50;99.90
18131;DHT22;9191;54.324;10.126;2022-07-10T05:41:51;14.40;99.90
18131;DHT22;9191;54.324;10.126;2022-07-10T05:44:18;14.40;99.90
18131;DHT22;9191;54.324;10.126;2022-07-10T05:46:45;14.40;99.90
18131;DHT22;9191;54.324;10.126;2022-07-10T05:49:11;14.30;99.90
18131;DHT22;9191;54.324;10.126;2022-07-10T05:51:38;14.50;99.90
18131;DHT22;9191;54.324;10.126;2022-07-10T05:54:06;14.60;99.90
18131;DHT22;9191;54.324;10.126;2022-07-10T05:56:33;14.60;99.90
18131;DHT22;9191;54.324;10.126;2022-07-10T05:59:00;14.70;99.90
18131;DHT22;9191;54.324;10.126;2022-07-10T06:01:27;14.70;99.90
18131;DHT22;9191;54.324;10.126;2022-07-10T06:03:53;14.80;99.90
18131;DHT22;9191;54.324;10.126;2022-07-10T06:06:20;14.80;99.90
18131;DHT22;9191;54.324;10.126;2022-07-10T06:08:47;14.70;99.90
18131;DHT22;9191;54.324;10.126;2022-07-10T06:11:15;14.80;99.90
18131;DHT22;9191;54.324;10.126;2022-07-10T06:13:42;15.00;99.90
18131;DHT22;9191;54.324;10.126;2022-07-10T06:16:09;15.10;99.90
18131;DHT22;9191;54.324;10.126;2022-07-10T06:18:35;15.10;99.90
18131;DHT22;9191;54.324;10.126;2022-07-10T06:21:02;15.20;99.90
18131;DHT22;9191;54.324;10.126;2022-07-10T06:23:29;15.30;99.90
18131;DHT22;9191;54.324;10.126;2022-07-10T06:25:55;15.50;99.90
18131;DHT22;9191;54.324;10.126;2022-07-10T06:28:23;15.70;99.90
18131;DHT22;9191;54.324;10.126;2022-07-10T06:30:50;15.50;99.90
18131;DHT22;9191;54.324;10.126;2022-07-10T06:33:17;15.40;99.90
18131;DHT22;9191;54.324;10.126;2022-07-10T06:35:43;15.20;99.90
18131;DHT22;9191;54.324;10.126;2022-07-10T06:38:10;15.20;99.90
18131;DHT22;9191;54.324;10.126;2022-07-10T06:40:37;15.30;99.90
18131;DHT22;9191;54.324;10.126;2022-07-10T06:43:04;15.40;99.90
18131;DHT22;9191;54.324;10.126;2022-07-10T06:45:32;15.50;99.90
18131;DHT22;9191;54.324;10.126;2022-07-10T06:47:58;15.50;99.90
18131;DHT22;9191;54.324;10.126;2022-07-10T06:50:25;15.60;99.90
18131;DHT22;9191;54.324;10.126;2022-07-10T06:52:53;15.60;99.90
18131;DHT22;9191;54.324;10.126;2022-07-10T06:55:19;15.70;99.90
18131;DHT22;9191;54.324;10.126;2022-07-10T06:57:46;15.90;99.90
18131;DHT22;9191;54.324;10.126;2022-07-10T07:00:13;15.90;99.90
18131;DHT22;9191;54.324;10.126;2022-07-10T07:02:42;15.80;99.90
18131;DHT22;9191;54.324;10.126;2022-07-10T07:05:09;15.60;99.90
18131;DHT22;9191;54.324;10.126;2022-07-10T07:07:36;15.50;99.90
18131;DHT22;9191;54.324;10.126;2022-07-10T07:10:02;15.70;99.90
18131;DHT22;9191;54.324;10.126;2022-07-10T07:12:29;15.80;99.90
18131;DHT22;9191;54.324;10.126;2022-07-10T07:14:56;16.00;99.90
18131;DHT22;9191;54.324;10.126;2022-07-10T07:17:25;15.80;99.90
18131;DHT22;9191;54.324;10.126;2022-07-10T07:20:00;16.00;99.90
18131;DHT22;9191;54.324;10.126;2022-07-10T07:22:44;16.10;99.90
18131;DHT22;9191;54.324;10.126;2022-07-10T07:25:28;16.10;99.90
18131;DHT22;9191;54.324;10.126;2022-07-10T07:27:55;16.20;99.90
18131;DHT22;9191;54.324;10.126;2022-07-10T07:30:21;16.30;99.90
18131;DHT22;9191;54.324;10.126;2022-07-10T07:32:48;16.30;99.90
18131;DHT22;9191;54.324;10.126;2022-07-10T07:35:16;16.60;99.90
18131;DHT22;9191;54.324;10.126;2022-07-10T07:37:43;17.00;99.90
18131;DHT22;9191;54.324;10.126;2022-07-10T07:40:11;16.90;99.90
18131;DHT22;9191;54.324;10.126;2022-07-10T07:42:38;17.00;99.90
18131;DHT22;9191;54.324;10.126;2022-07-10T07:45:06;16.90;99.90
18131;DHT22;9191;54.324;10.126;2022-07-10T07:47:42;16.80;99.90
18131;DHT22;9191;54.324;10.126;2022-07-10T07:50:09;16.70;99.90
18131;DHT22;9191;54.324;10.126;2022-07-10T07:52:37;16.70;99.90
18131;DHT22;9191;54.324;10.126;2022-07-10T07:55:04;17.00;99.90
18131;DHT22;9191;54.324;10.126;2022-07-10T07:57:30;17.20;99.90
18131;DHT22;9191;54.324;10.126;2022-07-10T07:59:57;17.50;99.90
18131;DHT22;9191;54.324;10.126;2022-07-10T08:02:24;17.70;99.90
18131;DHT22;9191;54.324;10.126;2022-07-10T08:04:50;17.70;99.90
18131;DHT22;9191;54.324;10.126;2022-07-10T08:07:17;17.70;99.90
18131;DHT22;9191;54.324;10.126;2022-07-10T08:09:45;17.50;99.90
18131;DHT22;9191;54.324;10.126;2022-07-10T08:12:12;17.60;99.90
18131;DHT22;9191;54.324;10.126;2022-07-10T08:14:38;17.70;99.90
18131;DHT22;9191;54.324;10.126;2022-07-10T08:17:05;18.30;99.90
18131;DHT22;9191;54.324;10.126;2022-07-10T08:19:31;18.70;99.90
18131;DHT22;9191;54.324;10.126;2022-07-10T08:21:58;18.90;99.90
18131;DHT22;9191;54.324;10.126;2022-07-10T08:24:25;19.10;99.90
18131;DHT22;9191;54.324;10.126;2022-07-10T08:26:53;19.10;99.90
18131;DHT22;9191;54.324;10.126;2022-07-10T08:29:20;19.60;99.90
18131;DHT22;9191;54.324;10.126;2022-07-10T08:31:47;20.30;99.90
18131;DHT22;9191;54.324;10.126;2022-07-10T08:34:14;20.10;99.90
18131;DHT22;9191;54.324;10.126;2022-07-10T08:36:40;19.50;99.90
18131;DHT22;9191;54.324;10.126;2022-07-10T08:39:07;19.50;99.90
18131;DHT22;9191;54.324;10.126;2022-07-10T08:41:33;20.50;99.90
18131;DHT22;9191;54.324;10.126;2022-07-10T08:44:02;21.50;99.90
18131;DHT22;9191;54.324;10.126;2022-07-10T08:46:29;22.60;99.90
18131;DHT22;9191;54.324;10.126;2022-07-10T08:48:58;22.80;99.90
18131;DHT22;9191;54.324;10.126;2022-07-10T08:51:30;23.10;99.90
18131;DHT22;9191;54.324;10.126;2022-07-10T08:54:01;23.00;99.90
18131;DHT22;9191;54.324;10.126;2022-07-10T08:56:30;22.30;99.90
18131;DHT22;9191;54.324;10.126;2022-07-10T08:58:57;22.10;99.90
18131;DHT22;9191;54.324;10.126;2022-07-10T09:01:25;22.30;99.90
18131;DHT22;9191;54.324;10.126;2022-07-10T09:03:52;22.10;99.90
18131;DHT22;9191;54.324;10.126;2022-07-10T09:06:19;21.40;99.90
18131;DHT22;9191;54.324;10.126;2022-07-10T09:09:01;21.60;99.90
18131;DHT22;9191;54.324;10.126;2022-07-10T09:11:28;22.40;99.90
18131;DHT22;9191;54.324;10.126;2022-07-10T09:13:56;23.10;99.90
18131;DHT22;9191;54.324;10.126;2022-07-10T09:16:23;23.20;99.90
18131;DHT22;9191;54.324;10.126;2022-07-10T09:18:51;22.50;99.90
18131;DHT22;9191;54.324;10.126;2022-07-10T09:21:19;21.30;99.90
18131;DHT22;9191;54.324;10.126;2022-07-10T09:23:46;20.90;99.90
18131;DHT22;9191;54.324;10.126;2022-07-10T09:26:12;20.00;99.90
18131;DHT22;9191;54.324;10.126;2022-07-10T09:28:39;20.10;99.90
18131;DHT22;9191;54.324;10.126;2022-07-10T09:31:06;19.60;99.90
18131;DHT22;9191;54.324;10.126;2022-07-10T09:33:33;19.30;99.90
18131;DHT22;9191;54.324;10.126;2022-07-10T09:36:05;19.20;99.90
18131;DHT22;9191;54.324;10.126;2022-07-10T09:41:15;19.20;99.90
18131;DHT22;9191;54.324;10.126;2022-07-10T09:43:42;19.10;99.90
18131;DHT22;9191;54.324;10.126;2022-07-10T09:46:09;19.10;99.90
18131;DHT22;9191;54.324;10.126;2022-07-10T09:48:36;19.90;99.90
18131;DHT22;9191;54.324;10.126;2022-07-10T09:51:02;19.80;99.90
18131;DHT22;9191;54.324;10.126;2022-07-10T09:53:31;19.60;99.90
18131;DHT22;9191;54.324;10.126;2022-07-10T09:55:59;19.10;99.90
18131;DHT22;9191;54.324;10.126;2022-07-10T09:58:27;19.40;99.90
18131;DHT22;9191;54.324;10.126;2022-07-10T10:00:57;20.50;99.90
18131;DHT22;9191;54.324;10.126;2022-07-10T10:03:25;20.30;99.90
18131;DHT22;9191;54.324;10.126;2022-07-10T10:05:53;20.40;99.90
18131;DHT22;9191;54.324;10.126;2022-07-10T10:08:21;20.90;99.90
18131;DHT22;9191;54.324;10.126;2022-07-10T10:10:51;20.90;99.90
18131;DHT22;9191;54.324;10.126;2022-07-10T10:13:19;20.80;99.90
18131;DHT22;9191;54.324;10.126;2022-07-10T10:15:46;20.50;99.90
18131;DHT22;9191;54.324;10.126;2022-07-10T10:18:15;20.80;99.90
18131;DHT22;9191;54.324;10.126;2022-07-10T10:20:43;20.60;99.90
18131;DHT22;9191;54.324;10.126;2022-07-10T10:23:12;20.30;99.90
18131;DHT22;9191;54.324;10.126;2022-07-10T10:25:39;19.40;99.90
18131;DHT22;9191;54.324;10.126;2022-07-10T10:28:08;19.20;99.90
18131;DHT22;9191;54.324;10.126;2022-07-10T10:30:36;18.80;99.90
18131;DHT22;9191;54.324;10.126;2022-07-10T10:33:03;18.90;99.90
18131;DHT22;9191;54.324;10.126;2022-07-10T10:35:42;19.10;99.90
18131;DHT22;9191;54.324;10.126;2022-07-10T10:38:10;19.50;99.90
18131;DHT22;9191;54.324;10.126;2022-07-10T10:40:36;20.40;99.90
18131;DHT22;9191;54.324;10.126;2022-07-10T10:43:17;20.80;99.90
18131;DHT22;9191;54.324;10.126;2022-07-10T10:45:44;20.70;99.90
18131;DHT22;9191;54.324;10.126;2022-07-10T10:48:12;20.30;99.90
18131;DHT22;9191;54.324;10.126;2022-07-10T10:50:40;19.90;99.90
18131;DHT22;9191;54.324;10.126;2022-07-10T10:53:13;19.60;99.90
18131;DHT22;9191;54.324;10.126;2022-07-10T10:55:41;19.30;99.90
18131;DHT22;9191;54.324;10.126;2022-07-10T10:58:35;19.30;99.90
18131;DHT22;9191;54.324;10.126;2022-07-10T11:01:02;19.30;99.90
18131;DHT22;9191;54.324;10.126;2022-07-10T11:03:29;19.70;99.90
18131;DHT22;9191;54.324;10.126;2022-07-10T11:05:56;20.90;99.90
18131;DHT22;9191;54.324;10.126;2022-07-10T11:14:06;22.20;99.90
18131;DHT22;9191;54.324;10.126;2022-07-10T11:16:34;21.60;99.90
18131;DHT22;9191;54.324;10.126;2022-07-10T11:19:01;21.10;99.90
18131;DHT22;9191;54.324;10.126;2022-07-10T11:21:28;21.50;99.90
18131;DHT22;9191;54.324;10.126;2022-07-10T11:23:59;23.60;99.90
18131;DHT22;9191;54.324;10.126;2022-07-10T11:26:35;25.20;99.90
18131;DHT22;9191;54.324;10.126;2022-07-10T11:29:02;25.10;99.90
18131;DHT22;9191;54.324;10.126;2022-07-10T11:31:31;24.60;99.90
18131;DHT22;9191;54.324;10.126;2022-07-10T11:34:03;24.10;99.90
18131;DHT22;9191;54.324;10.126;2022-07-10T11:36:30;23.20;99.90
18131;DHT22;9191;54.324;10.126;2022-07-10T11:38:58;22.10;99.90
18131;DHT22;9191;54.324;10.126;2022-07-10T11:41:25;23.10;99.90
18131;DHT22;9191;54.324;10.126;2022-07-10T11:43:52;24.50;99.90
18131;DHT22;9191;54.324;10.126;2022-07-10T11:46:19;24.90;99.90
18131;DHT22;9191;54.324;10.126;2022-07-10T11:48:48;25.90;99.90
18131;DHT22;9191;54.324;10.126;2022-07-10T11:51:16;26.20;99.90
18131;DHT22;9191;54.324;10.126;2022-07-10T11:53:52;25.40;99.90
18131;DHT22;9191;54.324;10.126;2022-07-10T11:56:19;24.00;99.90
18131;DHT22;9191;54.324;10.126;2022-07-10T11:58:52;23.80;99.90
18131;DHT22;9191;54.324;10.126;2022-07-10T12:01:19;22.30;99.90
18131;DHT22;9191;54.324;10.126;2022-07-10T12:03:54;22.80;99.90
18131;DHT22;9191;54.324;10.126;2022-07-10T12:06:22;24.20;99.90
18131;DHT22;9191;54.324;10.126;2022-07-10T12:08:49;24.70;99.90
18131;DHT22;9191;54.324;10.126;2022-07-10T12:11:17;24.60;99.90
18131;DHT22;9191;54.324;10.126;2022-07-10T12:13:44;24.10;99.90
18131;DHT22;9191;54.324;10.126;2022-07-10T12:16:11;23.30;99.90
18131;DHT22;9191;54.324;10.126;2022-07-10T12:18:38;22.80;99.90
18131;DHT22;9191;54.324;10.126;2022-07-10T12:21:08;22.20;99.90
18131;DHT22;9191;54.324;10.126;2022-07-10T12:23:35;20.90;99.90
18131;DHT22;9191;54.324;10.126;2022-07-10T12:26:04;20.60;99.90
18131;DHT22;9191;54.324;10.126;2022-07-10T12:28:47;20.60;99.90
18131;DHT22;9191;54.324;10.126;2022-07-10T12:31:19;21.60;99.90
18131;DHT22;9191;54.324;10.126;2022-07-10T12:33:49;23.10;99.90
18131;DHT22;9191;54.324;10.126;2022-07-10T12:36:20;23.40;99.90
18131;DHT22;9191;54.324;10.126;2022-07-10T12:38:54;22.40;99.90
18131;DHT22;9191;54.324;10.126;2022-07-10T12:41:23;21.50;99.90
18131;DHT22;9191;54.324;10.126;2022-07-10T12:43:51;20.80;99.90
18131;DHT22;9191;54.324;10.126;2022-07-10T12:46:18;20.10;99.90
18131;DHT22;9191;54.324;10.126;2022-07-10T12:49:00;20.10;99.90
18131;DHT22;9191;54.324;10.126;2022-07-10T12:51:28;20.20;99.90
18131;DHT22;9191;54.324;10.126;2022-07-10T12:53:55;21.00;99.90
18131;DHT22;9191;54.324;10.126;2022-07-10T12:56:32;22.40;99.90
18131;DHT22;9191;54.324;10.126;2022-07-10T12:58:59;23.30;99.90
18131;DHT22;9191;54.324;10.126;2022-07-10T13:01:26;23.10;99.90
18131;DHT22;9191;54.324;10.126;2022-07-10T13:03:57;23.00;99.90
18131;DHT22;9191;54.324;10.126;2022-07-10T13:06:31;23.20;99.90
18131;DHT22;9191;54.324;10.126;2022-07-10T13:08:59;23.00;99.90
18131;DHT22;9191;54.324;10.126;2022-07-10T13:11:25;23.70;99.90
18131;DHT22;9191;54.324;10.126;2022-07-10T13:13:53;24.60;99.90
18131;DHT22;9191;54.324;10.126;2022-07-10T13:16:20;24.20;99.90
18131;DHT22;9191;54.324;10.126;2022-07-10T13:18:47;23.90;99.90
18131;DHT22;9191;54.324;10.126;2022-07-10T13:21:14;24.50;99.90
18131;DHT22;9191;54.324;10.126;2022-07-10T13:23:42;24.80;99.90
18131;DHT22;9191;54.324;10.126;2022-07-10T13:26:09;25.50;99.90
18131;DHT22;9191;54.324;10.126;2022-07-10T13:28:36;25.70;99.90
18131;DHT22;9191;54.324;10.126;2022-07-10T13:31:02;25.70;99.90
18131;DHT22;9191;54.324;10.126;2022-07-10T13:33:29;26.80;99.90
18131;DHT22;9191;54.324;10.126;2022-07-10T13:35:58;26.50;99.90
18131;DHT22;9191;54.324;10.126;2022-07-10T13:38:25;25.90;99.90
18131;DHT22;9191;54.324;10.126;2022-07-10T13:40:53;26.20;99.90
18131;DHT22;9191;54.324;10.126;2022-07-10T13:43:20;25.40;99.90
18131;DHT22;9191;54.324;10.126;2022-07-10T13:45:52;24.90;99.90
18131;DHT22;9191;54.324;10.126;2022-07-10T13:48:18;24.10;99.90
18131;DHT22;9191;54.324;10.126;2022-07-10T13:50:45;24.80;99.90
18131;DHT22;9191;54.324;10.126;2022-07-10T13:53:12;24.40;99.90
18131;DHT22;9191;54.324;10.126;2022-07-10T13:55:39;24.50;99.90
18131;DHT22;9191;54.324;10.126;2022-07-10T13:58:07;24.40;99.90
18131;DHT22;9191;54.324;10.126;2022-07-10T14:00:35;24.40;99.90
18131;DHT22;9191;54.324;10.126;2022-07-10T14:03:02;25.70;99.90
18131;DHT22;9191;54.324;10.126;2022-07-10T14:05:28;25.80;99.90
18131;DHT22;9191;54.324;10.126;2022-07-10T14:07:55;26.00;99.90
18131;DHT22;9191;54.324;10.126;2022-07-10T14:10:22;25.40;99.90
18131;DHT22;9191;54.324;10.126;2022-07-10T14:12:48;24.90;99.90
18131;DHT22;9191;54.324;10.126;2022-07-10T14:15:16;24.90;99.90
18131;DHT22;9191;54.324;10.126;2022-07-10T14:17:43;25.20;99.90
18131;DHT22;9191;54.324;10.126;2022-07-10T14:20:10;25.00;99.90
18131;DHT22;9191;54.324;10.126;2022-07-10T14:22:37;25.00;99.90
18131;DHT22;9191;54.324;10.126;2022-07-10T14:25:04;24.60;99.90
18131;DHT22;9191;54.324;10.126;2022-07-10T14:27:31;24.40;99.90
18131;DHT22;9191;54.324;10.126;2022-07-10T14:29:58;24.00;99.90
18131;DHT22;9191;54.324;10.126;2022-07-10T14:32:26;23.40;99.90
18131;DHT22;9191;54.324;10.126;2022-07-10T14:34:52;22.50;99.90
18131;DHT22;9191;54.324;10.126;2022-07-10T14:37:19;22.50;99.90
18131;DHT22;9191;54.324;10.126;2022-07-10T14:39:47;22.30;99.90
18131;DHT22;9191;54.324;10.126;2022-07-10T14:42:14;22.60;99.90
18131;DHT22;9191;54.324;10.126;2022-07-10T14:44:41;22.70;99.90
18131;DHT22;9191;54.324;10.126;2022-07-10T14:47:07;22.60;99.90
18131;DHT22;9191;54.324;10.126;2022-07-10T14:49:35;22.20;99.90
18131;DHT22;9191;54.324;10.126;2022-07-10T14:52:03;21.80;99.90
18131;DHT22;9191;54.324;10.126;2022-07-10T14:54:30;21.60;99.90
18131;DHT22;9191;54.324;10.126;2022-07-10T14:56:56;21.40;99.90
18131;DHT22;9191;54.324;10.126;2022-07-10T14:59:23;21.60;99.90
18131;DHT22;9191;54.324;10.126;2022-07-10T15:01:50;21.50;99.90
18131;DHT22;9191;54.324;10.126;2022-07-10T15:04:17;21.70;99.90
18131;DHT22;9191;54.324;10.126;2022-07-10T15:06:45;21.70;99.90
18131;DHT22;9191;54.324;10.126;2022-07-10T15:09:12;21.70;99.90
18131;DHT22;9191;54.324;10.126;2022-07-10T15:11:39;21.30;99.90
18131;DHT22;9191;54.324;10.126;2022-07-10T15:14:05;21.10;99.90
18131;DHT22;9191;54.324;10.126;2022-07-10T15:16:32;21.10;99.90
18131;DHT22;9191;54.324;10.126;2022-07-10T15:18:59;21.10;99.90
18131;DHT22;9191;54.324;10.126;2022-07-10T15:21:26;21.20;99.90
18131;DHT22;9191;54.324;10.126;2022-07-10T15:23:55;21.20;99.90
18131;DHT22;9191;54.324;10.126;2022-07-10T15:26:22;21.10;99.90
18131;DHT22;9191;54.324;10.126;2022-07-10T15:28:48;20.90;99.90
18131;DHT22;9191;54.324;10.126;2022-07-10T15:31:15;20.90;99.90
18131;DHT22;9191;54.324;10.126;2022-07-10T15:33:42;20.80;99.90
18131;DHT22;9191;54.324;10.126;2022-07-10T15:36:10;20.80;99.90
18131;DHT22;9191;54.324;10.126;2022-07-10T15:38:37;20.90;99.90
18131;DHT22;9191;54.324;10.126;2022-07-10T15:41:05;20.90;99.90